createdAt,value
2023-01-10T00:01:53.374Z,3.10
2023-01-10T00:04:20.393Z,2.60
2023-01-10T00:06:47.318Z,2.20
2023-01-10T00:09:14.208Z,2.60
2023-01-10T00:11:59.763Z,2.50
2023-01-10T00:14:29.021Z,2.50
2023-01-10T00:16:56.925Z,3.20
2023-01-10T00:19:23.824Z,2.70
2023-01-10T00:21:54.663Z,2.50
2023-01-10T00:24:22.562Z,3.10
2023-01-10T00:26:54.489Z,2.80
2023-01-10T00:29:23.518Z,2.90
2023-01-10T00:31:50.466Z,2.80
2023-01-10T00:34:17.313Z,2.50
2023-01-10T00:36:45.738Z,2.80
2023-01-10T00:39:12.828Z,2.50
2023-01-10T00:41:58.998Z,2.40
2023-01-10T00:44:26.284Z,2.80
2023-01-10T00:46:53.860Z,3.90
2023-01-10T00:49:20.840Z,2.80
2023-01-10T00:51:47.970Z,2.10
2023-01-10T00:54:15.331Z,2.50
2023-01-10T00:56:42.395Z,2.50
2023-01-10T00:59:09.614Z,2.60
2023-01-10T01:01:36.599Z,2.50
2023-01-10T01:04:03.677Z,2.20
2023-01-10T01:06:31.024Z,2.90
2023-01-10T01:08:57.982Z,2.50
2023-01-10T01:11:25.452Z,2.70
2023-01-10T01:13:52.513Z,3.30
2023-01-10T01:16:19.713Z,2.80
2023-01-10T01:18:47.027Z,3.10
2023-01-10T01:21:13.980Z,2.40
2023-01-10T01:23:40.930Z,2.40
2023-01-10T01:26:08.304Z,2.40
2023-01-10T01:28:35.284Z,3.60
2023-01-10T01:31:08.473Z,3.00
2023-01-10T01:33:36.026Z,3.80
2023-01-10T01:36:03.177Z,2.40
2023-01-10T01:38:30.063Z,2.90
2023-01-10T01:40:57.092Z,4.00
2023-01-10T01:43:28.662Z,2.90
2023-01-10T01:45:55.821Z,3.20
2023-01-10T01:48:49.373Z,3.30
2023-01-10T01:51:21.023Z,3.10
2023-01-10T01:53:59.866Z,2.20
2023-01-10T01:56:37.289Z,2.60
2023-01-10T01:59:08.295Z,3.30
2023-01-10T02:01:35.874Z,2.60
2023-01-10T02:04:14.102Z,2.80
2023-01-10T02:06:41.052Z,3.10
2023-01-10T02:09:22.551Z,3.10
2023-01-10T02:11:49.498Z,2.90
2023-01-10T02:14:16.561Z,2.90
2023-01-10T02:16:43.488Z,2.80
2023-01-10T02:19:29.470Z,3.30
2023-01-10T02:22:16.570Z,3.20
2023-01-10T02:24:58.817Z,3.60
2023-01-10T02:27:27.519Z,3.40
2023-01-10T02:30:05.162Z,2.00
2023-01-10T02:33:00.576Z,2.70
2023-01-10T02:35:43.374Z,2.90
2023-01-10T02:38:39.142Z,2.70
2023-01-10T02:41:09.058Z,2.50
2023-01-10T02:43:39.388Z,2.90
2023-01-10T02:46:12.386Z,2.70
2023-01-10T02:48:39.281Z,3.30
2023-01-10T02:51:25.386Z,3.10
2023-01-10T02:53:58.779Z,3.40
2023-01-10T02:56:38.720Z,3.40
2023-01-10T02:59:08.690Z,3.40
2023-01-10T03:01:56.715Z,3.10
2023-01-10T03:04:43.393Z,3.20
2023-01-10T03:07:33.294Z,3.20
2023-01-10T03:10:27.784Z,3.30
2023-01-10T03:12:59.089Z,3.80
2023-01-10T03:15:28.609Z,3.30
2023-01-10T03:17:57.295Z,4.00
2023-01-10T03:20:24.350Z,4.70
2023-01-10T03:22:52.029Z,3.50
2023-01-10T03:25:20.207Z,3.50
2023-01-10T03:28:06.686Z,4.10
2023-01-10T03:30:47.762Z,3.80
2023-01-10T03:33:16.858Z,3.20
2023-01-10T03:36:23.180Z,3.40
2023-01-10T03:38:57.028Z,4.10
2023-01-10T03:41:42.395Z,2.40
2023-01-10T03:44:37.929Z,3.40
2023-01-10T03:47:41.287Z,2.70
2023-01-10T03:50:09.289Z,3.30
2023-01-10T03:52:36.592Z,3.40
2023-01-10T03:55:05.509Z,4.10
2023-01-10T03:57:32.814Z,3.10
2023-01-10T04:00:00.014Z,3.10
2023-01-10T04:02:28.396Z,3.00
2023-01-10T04:04:55.733Z,3.00
2023-01-10T04:07:23.028Z,2.80
2023-01-10T04:09:49.986Z,3.20
2023-01-10T04:12:17.414Z,3.50
2023-01-10T04:14:47.028Z,3.40
2023-01-10T04:17:14.722Z,3.20
2023-01-10T04:19:42.095Z,3.50
2023-01-10T04:22:12.305Z,3.80
2023-01-10T04:24:39.353Z,3.80
2023-01-10T04:27:06.331Z,3.70
2023-01-10T04:29:33.246Z,4.00
2023-01-10T04:32:01.159Z,3.50
2023-01-10T04:34:28.288Z,3.70
2023-01-10T04:36:55.345Z,3.50
2023-01-10T04:39:22.299Z,3.90
2023-01-10T04:41:49.765Z,3.40
2023-01-10T04:44:16.721Z,4.10
2023-01-10T04:46:43.595Z,4.00
2023-01-10T04:49:10.961Z,4.30
2023-01-10T04:51:37.854Z,4.20
2023-01-10T04:54:04.843Z,3.40
2023-01-10T04:56:31.793Z,3.70
2023-01-10T04:58:58.627Z,3.50
2023-01-10T05:01:26.127Z,3.90
2023-01-10T05:03:56.458Z,3.20
2023-01-10T05:06:24.033Z,4.00
2023-01-10T05:08:51.301Z,4.30
2023-01-10T05:11:18.230Z,6.20
2023-01-10T05:13:47.735Z,3.70
2023-01-10T05:16:15.159Z,3.50
2023-01-10T05:18:42.300Z,3.50
2023-01-10T05:21:10.946Z,3.90
2023-01-10T05:23:38.116Z,3.90
2023-01-10T05:26:10.082Z,4.20
2023-01-10T05:28:37.542Z,4.70
2023-01-10T05:31:06.645Z,4.50
2023-01-10T05:33:33.575Z,4.90
2023-01-10T05:36:04.687Z,5.00
2023-01-10T05:38:31.950Z,5.80
2023-01-10T05:40:59.277Z,4.80
2023-01-10T05:43:26.524Z,5.70
2023-01-10T05:45:53.461Z,5.20
2023-01-10T05:48:20.531Z,5.50
2023-01-10T05:50:49.015Z,5.40
2023-01-10T05:53:17.507Z,5.70
2023-01-10T05:55:44.462Z,6.20
2023-01-10T05:58:11.721Z,5.20
2023-01-10T06:00:40.065Z,6.80
2023-01-10T06:03:07.021Z,6.10
2023-01-10T06:05:34.017Z,6.60
2023-01-10T06:08:00.917Z,7.70
2023-01-10T06:10:27.818Z,6.10
2023-01-10T06:12:54.882Z,6.50
2023-01-10T06:15:21.819Z,6.10
2023-01-10T06:17:48.716Z,6.90
2023-01-10T06:20:16.035Z,6.40
2023-01-10T06:22:43.260Z,6.90
2023-01-10T06:25:10.900Z,6.20
2023-01-10T06:27:41.825Z,6.20
2023-01-10T06:30:13.280Z,5.80
2023-01-10T06:32:41.145Z,6.60
2023-01-10T06:35:08.689Z,6.70
2023-01-10T06:37:35.591Z,7.80
2023-01-10T06:40:02.968Z,7.20
2023-01-10T06:42:30.159Z,6.60
2023-01-10T06:44:57.297Z,7.30
2023-01-10T06:47:24.276Z,6.90
2023-01-10T06:49:54.098Z,6.20
2023-01-10T06:52:21.416Z,5.90
2023-01-10T06:54:49.385Z,6.50
2023-01-10T06:57:16.250Z,6.60
2023-01-10T06:59:43.147Z,7.20
2023-01-10T07:02:11.673Z,6.60
2023-01-10T07:04:42.421Z,5.90
2023-01-10T07:07:09.401Z,7.90
2023-01-10T07:09:36.301Z,6.40
2023-01-10T07:12:03.350Z,6.20
2023-01-10T07:14:30.376Z,6.50
2023-01-10T07:16:57.539Z,7.10
2023-01-10T07:19:24.428Z,6.10
2023-01-10T07:21:51.527Z,6.70
2023-01-10T07:24:18.953Z,6.10
2023-01-10T07:26:45.835Z,7.10
2023-01-10T07:29:12.688Z,7.50
2023-01-10T07:31:39.661Z,7.30
2023-01-10T07:34:06.590Z,8.00
2023-01-10T07:36:37.388Z,6.80
2023-01-10T07:39:07.656Z,6.50
2023-01-10T07:41:34.817Z,6.40
2023-01-10T07:44:03.220Z,6.60
2023-01-10T07:46:30.297Z,6.40
2023-01-10T07:48:57.265Z,6.30
2023-01-10T07:51:24.262Z,6.20
2023-01-10T07:53:51.217Z,6.40
2023-01-10T07:56:18.269Z,8.90
2023-01-10T07:58:46.664Z,8.50
2023-01-10T08:01:13.757Z,7.40
2023-01-10T08:03:41.102Z,7.90
2023-01-10T08:06:11.234Z,7.60
2023-01-10T08:08:38.349Z,8.30
2023-01-10T08:11:05.738Z,8.50
2023-01-10T08:13:35.698Z,7.70
2023-01-10T08:16:06.794Z,9.50
2023-01-10T08:18:34.577Z,9.50
2023-01-10T08:21:02.115Z,7.70
2023-01-10T08:23:29.745Z,8.40
2023-01-10T08:25:58.640Z,8.80
2023-01-10T08:28:27.012Z,7.90
2023-01-10T08:30:55.934Z,9.70
2023-01-10T08:33:24.047Z,8.00
2023-01-10T08:35:51.151Z,9.10
2023-01-10T08:38:18.047Z,8.10
2023-01-10T08:40:44.915Z,7.80
2023-01-10T08:43:12.612Z,8.00
2023-01-10T08:45:39.855Z,8.90
2023-01-10T08:48:09.336Z,8.50
2023-01-10T08:50:36.878Z,8.50
2023-01-10T08:53:04.275Z,8.60
2023-01-10T08:55:31.702Z,8.40
2023-01-10T08:58:02.418Z,7.70
2023-01-10T09:00:29.636Z,8.40
2023-01-10T09:02:56.755Z,8.60
2023-01-10T09:05:28.242Z,7.20
2023-01-10T09:08:00.459Z,9.10
2023-01-10T09:10:28.576Z,8.50
2023-01-10T09:12:57.180Z,8.60
2023-01-10T09:15:26.092Z,8.20
2023-01-10T09:17:59.172Z,7.70
2023-01-10T09:20:26.652Z,7.90
2023-01-10T09:22:53.833Z,6.40
2023-01-10T09:25:21.042Z,7.50
2023-01-10T09:27:48.185Z,6.70
2023-01-10T09:30:15.618Z,6.70
2023-01-10T09:32:51.384Z,7.90
2023-01-10T09:35:18.621Z,7.60
2023-01-10T09:37:48.996Z,6.80
2023-01-10T09:40:17.175Z,7.00
2023-01-10T09:43:04.327Z,6.90
2023-01-10T09:46:09.022Z,6.40
2023-01-10T09:49:00.939Z,5.70
2023-01-10T09:51:35.575Z,6.60
2023-01-10T09:54:13.063Z,6.50
2023-01-10T09:56:40.996Z,6.90
2023-01-10T09:59:24.150Z,5.80
2023-01-10T10:01:54.669Z,5.50
2023-01-10T10:04:30.969Z,6.20
2023-01-10T10:06:58.122Z,5.30
2023-01-10T10:09:33.235Z,5.20
2023-01-10T10:12:18.621Z,5.60
2023-01-10T10:15:01.830Z,5.30
2023-01-10T10:17:56.718Z,5.50
2023-01-10T10:20:28.949Z,5.60
2023-01-10T10:23:15.512Z,5.40
2023-01-10T10:26:11.910Z,5.80
2023-01-10T10:29:00.396Z,5.20
2023-01-10T10:31:30.390Z,5.60
2023-01-10T10:34:04.615Z,5.90
2023-01-10T10:36:57.541Z,5.60
2023-01-10T10:39:36.785Z,5.70
2023-01-10T10:42:04.113Z,6.90
2023-01-10T10:44:37.535Z,5.50
2023-01-10T10:47:19.585Z,6.30
2023-01-10T10:50:04.930Z,6.00
2023-01-10T10:52:35.120Z,5.90
2023-01-10T10:55:03.851Z,6.70
2023-01-10T10:57:32.467Z,6.10
2023-01-10T10:59:59.668Z,5.50
2023-01-10T11:02:32.427Z,5.50
2023-01-10T11:05:04.018Z,6.70
2023-01-10T11:13:12.626Z,6.60
2023-01-10T11:15:43.823Z,6.60
2023-01-10T11:18:14.915Z,5.40
2023-01-10T11:20:58.689Z,5.70
2023-01-10T11:24:02.876Z,6.70
2023-01-10T11:26:39.317Z,6.20
2023-01-10T11:29:06.230Z,6.20
2023-01-10T11:31:33.755Z,6.60
2023-01-10T11:34:01.274Z,6.40
2023-01-10T11:36:28.150Z,5.80
2023-01-10T11:39:02.383Z,6.10
2023-01-10T11:41:34.409Z,4.90
2023-01-10T11:44:30.375Z,5.80
2023-01-10T11:47:07.141Z,4.00
2023-01-10T11:49:42.463Z,5.90
2023-01-10T11:52:19.027Z,4.70
2023-01-10T11:54:45.945Z,5.20
2023-01-10T11:57:17.301Z,5.50
2023-01-10T11:59:58.260Z,5.20
2023-01-10T12:02:26.800Z,4.50
2023-01-10T12:04:58.730Z,5.00
2023-01-10T12:07:25.942Z,5.00
2023-01-10T12:10:01.094Z,4.90
2023-01-10T12:12:35.336Z,5.20
2023-01-10T12:15:25.816Z,6.00
2023-01-10T12:17:53.924Z,4.90
2023-01-10T12:20:20.914Z,5.60
2023-01-10T12:22:54.639Z,4.90
2023-01-10T12:25:39.086Z,3.80
2023-01-10T12:28:38.348Z,5.50
2023-01-10T12:31:06.618Z,5.90
2023-01-10T12:33:39.503Z,5.10
2023-01-10T12:36:23.482Z,5.50
2023-01-10T12:39:04.032Z,3.70
2023-01-10T12:42:11.672Z,5.20
2023-01-10T12:44:48.972Z,6.20
2023-01-10T12:47:30.798Z,4.60
2023-01-10T12:50:03.185Z,5.70
2023-01-10T12:52:30.230Z,6.10
2023-01-10T12:54:59.954Z,5.10
2023-01-10T12:57:36.624Z,5.20
2023-01-10T13:00:10.327Z,5.00
2023-01-10T13:02:44.081Z,5.80
2023-01-10T13:05:22.545Z,4.70
2023-01-10T13:07:54.614Z,4.80
2023-01-10T13:10:22.656Z,5.80
2023-01-10T13:13:28.833Z,6.20
2023-01-10T13:16:13.064Z,5.40
2023-01-10T13:19:00.148Z,4.70
2023-01-10T13:21:27.122Z,5.30
2023-01-10T13:23:57.922Z,5.30
2023-01-10T13:26:25.007Z,5.10
2023-01-10T13:28:59.669Z,5.40
2023-01-10T13:31:33.425Z,5.60
2023-01-10T13:34:13.358Z,4.90
2023-01-10T13:36:42.595Z,5.60
2023-01-10T13:39:36.945Z,5.60
2023-01-10T13:42:22.495Z,5.10
2023-01-10T13:45:02.405Z,5.00
2023-01-10T13:47:39.508Z,4.60
2023-01-10T13:50:25.697Z,4.90
2023-01-10T13:52:53.088Z,5.40
2023-01-10T13:55:53.954Z,4.90
2023-01-10T13:58:42.920Z,4.80
2023-01-10T14:01:42.514Z,5.20
2023-01-10T14:04:27.566Z,5.20
2023-01-10T14:07:14.342Z,4.60
2023-01-10T14:09:50.826Z,4.30
2023-01-10T14:12:21.062Z,4.90
2023-01-10T14:15:17.510Z,4.90
2023-01-10T14:17:44.869Z,5.30
2023-01-10T14:20:12.032Z,4.60
2023-01-10T14:22:48.559Z,5.10
2023-01-10T14:25:23.670Z,4.80
2023-01-10T14:27:51.860Z,5.30
2023-01-10T14:30:35.635Z,4.60
2023-01-10T14:33:15.828Z,6.10
2023-01-10T14:35:46.355Z,5.30
2023-01-10T14:38:41.156Z,6.30
2023-01-10T14:41:19.318Z,4.60
2023-01-10T14:43:59.308Z,5.00
2023-01-10T14:46:41.403Z,6.20
2023-01-10T14:49:34.063Z,5.30
2023-01-10T14:52:22.795Z,5.10
2023-01-10T14:55:04.954Z,4.50
2023-01-10T14:57:32.196Z,4.80
2023-01-10T15:00:17.910Z,5.00
2023-01-10T15:02:51.061Z,5.20
2023-01-10T15:08:25.293Z,4.60
2023-01-10T15:10:54.817Z,4.10
2023-01-10T15:13:24.232Z,5.00
2023-01-10T15:15:51.665Z,6.70
2023-01-10T15:18:38.828Z,6.50
2023-01-10T15:21:06.113Z,6.60
2023-01-10T15:23:37.118Z,4.90
2023-01-10T15:26:10.834Z,4.40
2023-01-10T15:28:42.527Z,5.90
2023-01-10T15:31:17.553Z,4.30
2023-01-10T15:33:56.610Z,4.90
2023-01-10T15:36:29.375Z,5.70
2023-01-10T15:38:56.456Z,5.20
2023-01-10T15:41:23.683Z,4.50
2023-01-10T15:43:58.114Z,6.20
2023-01-10T15:46:27.041Z,5.10
2023-01-10T15:49:05.487Z,5.00
2023-01-10T15:51:39.231Z,4.80
2023-01-10T15:54:07.683Z,5.50
2023-01-10T15:56:40.436Z,5.60
2023-01-10T15:59:52.553Z,5.70
2023-01-10T16:02:27.286Z,6.90
2023-01-10T16:07:42.616Z,4.80
2023-01-10T16:10:25.174Z,4.30
2023-01-10T16:13:27.183Z,5.70
2023-01-10T16:15:55.238Z,5.50
2023-01-10T16:18:22.391Z,5.10
2023-01-10T16:20:50.287Z,4.30
2023-01-10T16:23:19.497Z,5.00
2023-01-10T16:25:52.537Z,5.20
2023-01-10T16:28:20.058Z,4.80
2023-01-10T16:30:48.183Z,6.10
2023-01-10T16:33:22.838Z,5.00
2023-01-10T16:38:17.878Z,4.20
2023-01-10T16:40:51.739Z,4.70
2023-01-10T16:43:19.075Z,3.80
2023-01-10T16:48:31.409Z,4.10
2023-01-10T16:51:35.310Z,3.70
2023-01-10T16:54:02.206Z,3.40
2023-01-10T16:56:29.305Z,4.10
2023-01-10T16:58:56.337Z,4.10
2023-01-10T17:01:25.458Z,4.50
2023-01-10T17:03:55.152Z,4.00
2023-01-10T17:06:29.763Z,4.00
2023-01-10T17:08:56.907Z,3.80
2023-01-10T17:11:35.463Z,3.30
2023-01-10T17:14:05.734Z,3.90
2023-01-10T17:16:35.543Z,4.50
2023-01-10T17:19:08.602Z,3.90
2023-01-10T17:21:35.535Z,4.60
2023-01-10T17:24:09.655Z,3.50
2023-01-10T17:29:18.589Z,3.40
2023-01-10T17:31:45.602Z,4.40
2023-01-10T17:37:00.888Z,3.50
2023-01-10T17:39:30.998Z,3.30
2023-01-10T17:42:01.058Z,3.90
2023-01-10T17:44:28.162Z,4.00
2023-01-10T17:46:58.019Z,3.50
2023-01-10T17:49:25.072Z,4.80
2023-01-10T17:51:53.816Z,3.80
2023-01-10T17:54:21.535Z,3.90
2023-01-10T17:56:48.491Z,3.40
2023-01-10T17:59:15.468Z,3.70
2023-01-10T18:01:42.673Z,3.90
2023-01-10T18:04:10.152Z,4.20
2023-01-10T18:06:37.546Z,4.20
2023-01-10T18:09:04.799Z,3.60
2023-01-10T18:11:33.155Z,3.60
2023-01-10T18:14:00.068Z,3.10
2023-01-10T18:16:27.442Z,4.80
2023-01-10T18:18:54.520Z,6.20
2023-01-10T18:21:24.608Z,4.70
2023-01-10T18:23:56.878Z,4.10
2023-01-10T18:26:24.391Z,4.70
2023-01-10T18:28:53.025Z,4.50
2023-01-10T18:31:21.450Z,4.40
2023-01-10T18:33:48.612Z,4.90
2023-01-10T18:36:20.779Z,4.60
2023-01-10T18:38:48.206Z,4.40
2023-01-10T18:41:15.880Z,4.10
2023-01-10T18:43:42.854Z,4.20
2023-01-10T18:46:25.505Z,4.80
2023-01-10T18:49:02.693Z,5.20
2023-01-10T18:51:40.493Z,4.10
2023-01-10T18:54:07.714Z,5.00
2023-01-10T18:56:47.592Z,4.80
2023-01-10T18:59:19.266Z,3.70
2023-01-10T19:01:53.793Z,3.50
2023-01-10T19:04:38.901Z,4.50
2023-01-10T19:07:06.021Z,5.40
2023-01-10T19:09:33.328Z,5.00
2023-01-10T19:12:09.475Z,4.80
2023-01-10T19:14:36.440Z,4.40
2023-01-10T19:17:06.537Z,4.60
2023-01-10T19:19:33.449Z,4.60
2023-01-10T19:22:03.542Z,5.10
2023-01-10T19:24:32.968Z,4.30
2023-01-10T19:27:00.322Z,4.80
2023-01-10T19:29:33.846Z,5.30
2023-01-10T19:32:03.807Z,4.60
2023-01-10T19:34:30.866Z,5.30
2023-01-10T19:37:00.870Z,5.70
2023-01-10T19:39:27.967Z,5.70
2023-01-10T19:41:54.991Z,5.50
2023-01-10T19:44:24.372Z,6.30
2023-01-10T19:46:57.044Z,5.60
2023-01-10T19:49:26.778Z,6.50
2023-01-10T19:52:00.546Z,5.00
2023-01-10T19:54:37.830Z,5.80
2023-01-10T19:57:22.376Z,5.70
2023-01-10T20:00:00.224Z,5.90
2023-01-10T20:02:33.770Z,5.40
2023-01-10T20:05:04.441Z,6.60
2023-01-10T20:07:50.935Z,5.60
2023-01-10T20:10:18.263Z,4.90
2023-01-10T20:12:45.354Z,5.30
2023-01-10T20:15:15.431Z,4.60
2023-01-10T20:18:00.100Z,5.40
2023-01-10T20:20:27.339Z,4.70
2023-01-10T20:22:54.978Z,4.80
2023-01-10T20:26:11.566Z,4.70
2023-01-10T20:28:39.357Z,5.30
2023-01-10T20:31:08.033Z,5.40
2023-01-10T20:33:44.672Z,4.70
2023-01-10T20:36:31.184Z,4.30
2023-01-10T20:38:58.794Z,4.60
2023-01-10T20:41:31.162Z,5.00
2023-01-10T20:44:07.931Z,4.80
2023-01-10T20:46:38.946Z,6.00
2023-01-10T20:49:07.030Z,5.70
2023-01-10T20:51:37.712Z,5.40
2023-01-10T20:54:08.888Z,5.40
2023-01-10T20:56:38.708Z,6.70
2023-01-10T20:59:06.408Z,5.10
2023-01-10T21:01:35.363Z,6.10
2023-01-10T21:04:07.117Z,5.10
2023-01-10T21:06:35.049Z,5.90
2023-01-10T21:09:09.807Z,4.70
2023-01-10T21:14:26.409Z,5.40
2023-01-10T21:16:57.459Z,4.80
2023-01-10T21:19:27.364Z,5.20
2023-01-10T21:21:56.917Z,4.80
2023-01-10T21:24:25.413Z,5.40
2023-01-10T21:26:52.401Z,6.00
2023-01-10T21:29:19.357Z,5.00
2023-01-10T21:31:46.432Z,4.90
2023-01-10T21:34:13.471Z,4.80
2023-01-10T21:36:40.307Z,5.20
2023-01-10T21:39:07.279Z,5.30
2023-01-10T21:41:52.860Z,5.40
2023-01-10T21:44:20.404Z,5.60
2023-01-10T21:46:49.276Z,5.90
2023-01-10T21:49:16.358Z,5.30
2023-01-10T21:51:44.568Z,5.00
2023-01-10T21:54:11.554Z,4.90
2023-01-10T21:56:38.580Z,5.00
2023-01-10T21:59:05.475Z,5.60
2023-01-10T22:01:32.600Z,5.10
2023-01-10T22:03:59.478Z,4.50
2023-01-10T22:06:26.381Z,5.60
2023-01-10T22:08:53.375Z,5.00
2023-01-10T22:11:20.306Z,6.10
2023-01-10T22:13:47.972Z,4.70
2023-01-10T22:16:15.026Z,5.10
2023-01-10T22:18:43.199Z,4.50
2023-01-10T22:21:12.720Z,5.00
2023-01-10T22:23:43.194Z,5.80
2023-01-10T22:26:14.500Z,4.10
2023-01-10T22:28:41.575Z,4.40
2023-01-10T22:31:08.624Z,4.70
2023-01-10T22:33:36.703Z,4.60
2023-01-10T22:36:08.731Z,4.60
2023-01-10T22:38:35.818Z,4.60
2023-01-10T22:41:26.673Z,4.40
2023-01-10T22:43:53.996Z,4.30
2023-01-10T22:46:21.087Z,4.20
2023-01-10T22:48:48.109Z,4.90
2023-01-10T22:51:15.678Z,5.20
2023-01-10T22:53:42.928Z,4.80
2023-01-10T22:56:10.814Z,4.80
2023-01-10T22:58:37.963Z,4.90
2023-01-10T23:01:08.388Z,5.10
2023-01-10T23:03:35.560Z,5.00
2023-01-10T23:06:02.860Z,4.40
2023-01-10T23:08:29.880Z,4.50
2023-01-10T23:10:56.790Z,5.50
2023-01-10T23:13:23.914Z,4.90
2023-01-10T23:15:58.497Z,4.80
2023-01-10T23:18:25.913Z,5.30
2023-01-10T23:20:52.895Z,4.30
2023-01-10T23:23:19.931Z,5.80
2023-01-10T23:26:01.464Z,4.90
2023-01-10T23:28:29.492Z,5.60
2023-01-10T23:30:56.573Z,5.30
2023-01-10T23:33:23.474Z,4.50
2023-01-10T23:35:50.381Z,5.50
2023-01-10T23:38:17.380Z,5.70
2023-01-10T23:40:44.812Z,4.90
2023-01-10T23:43:11.669Z,4.90
2023-01-10T23:45:38.693Z,5.40
2023-01-10T23:48:06.252Z,5.10
2023-01-10T23:50:33.249Z,5.10
2023-01-10T23:53:00.292Z,4.50
2023-01-10T23:55:27.662Z,4.60
2023-01-10T23:57:54.536Z,5.20
